sensor_id;sensor_type;location;lat;lon;timestamp;temperature;humidity
37658;DHT22;23500;53.268;8.308;2022-07-22T00:01:54;23.10;72.00
37658;DHT22;23500;53.268;8.308;2022-07-22T00:04:20;23.10;72.30
37658;DHT22;23500;53.268;8.308;2022-07-22T00:06:45;23.10;72.30
37658;DHT22;23500;53.268;8.308;2022-07-22T00:09:11;23.10;72.20
37658;DHT22;23500;53.268;8.308;2022-07-22T00:11:36;23.00;72.10
37658;DHT22;23500;53.268;8.308;2022-07-22T00:14:02;23.00;72.30
37658;DHT22;23500;53.268;8.308;2022-07-22T00:16:28;23.00;72.20
37658;DHT22;23500;53.268;8.308;2022-07-22T00:18:53;23.10;72.50
37658;DHT22;23500;53.268;8.308;2022-07-22T00:21:19;23.00;72.30
37658;DHT22;23500;53.268;8.308;2022-07-22T00:23:45;23.00;72.50
37658;DHT22;23500;53.268;8.308;2022-07-22T00:26:10;23.00;72.30
37658;DHT22;23500;53.268;8.308;2022-07-22T00:28:36;23.00;72.60
37658;DHT22;23500;53.268;8.308;2022-07-22T00:31:02;23.00;72.30
37658;DHT22;23500;53.268;8.308;2022-07-22T00:33:28;23.00;72.60
37658;DHT22;23500;53.268;8.308;2022-07-22T00:35:53;23.00;72.60
37658;DHT22;23500;53.268;8.308;2022-07-22T00:38:19;23.00;72.20
37658;DHT22;23500;53.268;8.308;2022-07-22T00:40:45;23.00;72.20
37658;DHT22;23500;53.268;8.308;2022-07-22T00:43:10;23.00;72.30
37658;DHT22;23500;53.268;8.308;2022-07-22T00:45:36;22.90;72.20
37658;DHT22;23500;53.268;8.308;2022-07-22T00:48:03;22.90;71.80
37658;DHT22;23500;53.268;8.308;2022-07-22T00:50:29;22.90;72.20
37658;DHT22;23500;53.268;8.308;2022-07-22T00:52:55;22.90;72.80
37658;DHT22;23500;53.268;8.308;2022-07-22T00:55:21;22.90;72.30
37658;DHT22;23500;53.268;8.308;2022-07-22T00:57:46;22.90;72.40
37658;DHT22;23500;53.268;8.308;2022-07-22T01:00:17;22.90;72.50
37658;DHT22;23500;53.268;8.308;2022-07-22T01:02:43;22.90;72.50
37658;DHT22;23500;53.268;8.308;2022-07-22T01:05:08;22.90;72.60
37658;DHT22;23500;53.268;8.308;2022-07-22T01:07:36;22.90;72.90
37658;DHT22;23500;53.268;8.308;2022-07-22T01:10:01;22.90;72.80
37658;DHT22;23500;53.268;8.308;2022-07-22T01:12:27;22.80;72.80
37658;DHT22;23500;53.268;8.308;2022-07-22T01:14:53;22.90;72.70
37658;DHT22;23500;53.268;8.308;2022-07-22T01:17:19;22.80;72.80
37658;DHT22;23500;53.268;8.308;2022-07-22T01:19:45;22.80;72.60
37658;DHT22;23500;53.268;8.308;2022-07-22T01:22:11;22.80;72.80
37658;DHT22;23500;53.268;8.308;2022-07-22T01:24:36;22.80;72.70
37658;DHT22;23500;53.268;8.308;2022-07-22T01:27:02;22.80;72.80
37658;DHT22;23500;53.268;8.308;2022-07-22T01:29:28;22.80;73.00
37658;DHT22;23500;53.268;8.308;2022-07-22T01:31:54;22.80;73.20
37658;DHT22;23500;53.268;8.308;2022-07-22T01:34:20;22.80;73.00
37658;DHT22;23500;53.268;8.308;2022-07-22T01:36:46;22.80;73.10
37658;DHT22;23500;53.268;8.308;2022-07-22T01:39:11;22.80;73.10
37658;DHT22;23500;53.268;8.308;2022-07-22T01:41:37;22.80;73.10
37658;DHT22;23500;53.268;8.308;2022-07-22T01:44:03;22.80;73.30
37658;DHT22;23500;53.268;8.308;2022-07-22T01:46:29;22.80;73.30
37658;DHT22;23500;53.268;8.308;2022-07-22T01:48:55;22.80;73.70
37658;DHT22;23500;53.268;8.308;2022-07-22T01:51:20;22.80;73.80
37658;DHT22;23500;53.268;8.308;2022-07-22T01:53:46;22.80;73.40
37658;DHT22;23500;53.268;8.308;2022-07-22T01:56:12;22.80;73.70
37658;DHT22;23500;53.268;8.308;2022-07-22T01:58:38;22.80;73.90
37658;DHT22;23500;53.268;8.308;2022-07-22T02:01:04;22.80;73.70
37658;DHT22;23500;53.268;8.308;2022-07-22T02:03:29;22.80;73.60
37658;DHT22;23500;53.268;8.308;2022-07-22T02:05:55;22.80;73.50
37658;DHT22;23500;53.268;8.308;2022-07-22T02:08:21;22.80;74.00
37658;DHT22;23500;53.268;8.308;2022-07-22T02:10:47;22.80;73.20
37658;DHT22;23500;53.268;8.308;2022-07-22T02:13:13;22.80;73.00
37658;DHT22;23500;53.268;8.308;2022-07-22T02:15:38;22.80;72.70
37658;DHT22;23500;53.268;8.308;2022-07-22T02:18:15;22.70;72.80
37658;DHT22;23500;53.268;8.308;2022-07-22T02:20:41;22.70;73.10
37658;DHT22;23500;53.268;8.308;2022-07-22T02:23:07;22.70;72.70
37658;DHT22;23500;53.268;8.308;2022-07-22T02:25:34;22.70;73.10
37658;DHT22;23500;53.268;8.308;2022-07-22T02:28:00;22.70;72.90
37658;DHT22;23500;53.268;8.308;2022-07-22T02:30:26;22.70;72.90
37658;DHT22;23500;53.268;8.308;2022-07-22T02:32:52;22.70;72.90
37658;DHT22;23500;53.268;8.308;2022-07-22T02:35:17;22.70;73.10
37658;DHT22;23500;53.268;8.308;2022-07-22T02:37:43;22.70;73.10
37658;DHT22;23500;53.268;8.308;2022-07-22T02:40:09;22.70;73.50
37658;DHT22;23500;53.268;8.308;2022-07-22T02:42:35;22.70;73.30
37658;DHT22;23500;53.268;8.308;2022-07-22T02:45:02;22.70;73.60
37658;DHT22;23500;53.268;8.308;2022-07-22T02:47:28;22.70;73.50
37658;DHT22;23500;53.268;8.308;2022-07-22T02:49:54;22.70;73.50
37658;DHT22;23500;53.268;8.308;2022-07-22T02:52:20;22.70;73.20
37658;DHT22;23500;53.268;8.308;2022-07-22T02:54:45;22.70;72.90
37658;DHT22;23500;53.268;8.308;2022-07-22T02:57:11;22.60;73.20
37658;DHT22;23500;53.268;8.308;2022-07-22T02:59:36;22.60;73.00
37658;DHT22;23500;53.268;8.308;2022-07-22T03:02:03;22.60;72.70
37658;DHT22;23500;53.268;8.308;2022-07-22T03:04:28;22.60;73.10
37658;DHT22;23500;53.268;8.308;2022-07-22T03:06:54;22.60;73.50
37658;DHT22;23500;53.268;8.308;2022-07-22T03:09:20;22.60;73.60
37658;DHT22;23500;53.268;8.308;2022-07-22T03:11:45;22.60;73.20
37658;DHT22;23500;53.268;8.308;2022-07-22T03:14:11;22.60;74.00
37658;DHT22;23500;53.268;8.308;2022-07-22T03:16:37;22.60;73.70
37658;DHT22;23500;53.268;8.308;2022-07-22T03:19:03;22.60;73.50
37658;DHT22;23500;53.268;8.308;2022-07-22T03:21:29;22.60;73.50
37658;DHT22;23500;53.268;8.308;2022-07-22T03:23:54;22.60;73.20
37658;DHT22;23500;53.268;8.308;2022-07-22T03:26:23;22.60;73.40
37658;DHT22;23500;53.268;8.308;2022-07-22T03:28:50;22.60;73.70
37658;DHT22;23500;53.268;8.308;2022-07-22T03:31:15;22.60;73.80
37658;DHT22;23500;53.268;8.308;2022-07-22T03:33:41;22.60;72.90
37658;DHT22;23500;53.268;8.308;2022-07-22T03:36:07;22.60;73.40
37658;DHT22;23500;53.268;8.308;2022-07-22T03:38:34;22.60;73.60
37658;DHT22;23500;53.268;8.308;2022-07-22T03:41:00;22.60;73.70
37658;DHT22;23500;53.268;8.308;2022-07-22T03:43:25;22.60;74.00
37658;DHT22;23500;53.268;8.308;2022-07-22T03:45:51;22.60;73.80
37658;DHT22;23500;53.268;8.308;2022-07-22T03:48:17;22.60;73.30
37658;DHT22;23500;53.268;8.308;2022-07-22T03:50:42;22.60;73.40
37658;DHT22;23500;53.268;8.308;2022-07-22T03:53:08;22.60;73.50
37658;DHT22;23500;53.268;8.308;2022-07-22T03:55:34;22.60;73.40
37658;DHT22;23500;53.268;8.308;2022-07-22T03:57:59;22.60;73.50
37658;DHT22;23500;53.268;8.308;2022-07-22T04:00:25;22.60;73.20
37658;DHT22;23500;53.268;8.308;2022-07-22T04:02:51;22.50;73.00
37658;DHT22;23500;53.268;8.308;2022-07-22T04:05:16;22.50;73.10
37658;DHT22;23500;53.268;8.308;2022-07-22T04:07:42;22.50;73.30
37658;DHT22;23500;53.268;8.308;2022-07-22T04:10:08;22.50;72.90
37658;DHT22;23500;53.268;8.308;2022-07-22T04:12:35;22.50;73.10
37658;DHT22;23500;53.268;8.308;2022-07-22T04:15:01;22.50;73.30
37658;DHT22;23500;53.268;8.308;2022-07-22T04:17:27;22.50;73.30
37658;DHT22;23500;53.268;8.308;2022-07-22T04:19:52;22.50;73.20
37658;DHT22;23500;53.268;8.308;2022-07-22T04:22:18;22.50;73.30
37658;DHT22;23500;53.268;8.308;2022-07-22T04:24:44;22.50;73.90
37658;DHT22;23500;53.268;8.308;2022-07-22T04:27:10;22.50;72.80
37658;DHT22;23500;53.268;8.308;2022-07-22T04:29:35;22.40;72.50
37658;DHT22;23500;53.268;8.308;2022-07-22T04:32:01;22.40;72.80
37658;DHT22;23500;53.268;8.308;2022-07-22T04:34:27;22.40;72.70
37658;DHT22;23500;53.268;8.308;2022-07-22T04:36:52;22.40;72.80
37658;DHT22;23500;53.268;8.308;2022-07-22T04:39:18;22.40;72.40
37658;DHT22;23500;53.268;8.308;2022-07-22T04:41:44;22.40;72.60
37658;DHT22;23500;53.268;8.308;2022-07-22T04:44:10;22.40;72.70
37658;DHT22;23500;53.268;8.308;2022-07-22T04:46:35;22.40;72.50
37658;DHT22;23500;53.268;8.308;2022-07-22T04:49:01;22.40;72.30
37658;DHT22;23500;53.268;8.308;2022-07-22T04:51:26;22.30;71.60
37658;DHT22;23500;53.268;8.308;2022-07-22T04:53:52;22.30;71.20
37658;DHT22;23500;53.268;8.308;2022-07-22T04:56:18;22.30;70.60
37658;DHT22;23500;53.268;8.308;2022-07-22T04:58:43;22.30;70.70
37658;DHT22;23500;53.268;8.308;2022-07-22T05:01:09;22.30;70.80
37658;DHT22;23500;53.268;8.308;2022-07-22T05:03:38;22.30;70.90
37658;DHT22;23500;53.268;8.308;2022-07-22T05:06:04;22.20;70.70
37658;DHT22;23500;53.268;8.308;2022-07-22T05:08:30;22.20;70.70
37658;DHT22;23500;53.268;8.308;2022-07-22T05:10:55;22.20;70.60
37658;DHT22;23500;53.268;8.308;2022-07-22T05:13:21;22.20;70.60
37658;DHT22;23500;53.268;8.308;2022-07-22T05:15:47;22.20;70.60
37658;DHT22;23500;53.268;8.308;2022-07-22T05:18:12;22.20;70.60
37658;DHT22;23500;53.268;8.308;2022-07-22T05:20:38;22.20;70.70
37658;DHT22;23500;53.268;8.308;2022-07-22T05:23:04;22.20;71.10
37658;DHT22;23500;53.268;8.308;2022-07-22T05:25:29;22.20;71.10
37658;DHT22;23500;53.268;8.308;2022-07-22T05:27:55;22.20;70.90
37658;DHT22;23500;53.268;8.308;2022-07-22T05:30:22;22.20;71.00
37658;DHT22;23500;53.268;8.308;2022-07-22T05:32:47;22.20;71.00
37658;DHT22;23500;53.268;8.308;2022-07-22T05:35:13;22.20;71.00
37658;DHT22;23500;53.268;8.308;2022-07-22T05:37:39;22.20;70.80
37658;DHT22;23500;53.268;8.308;2022-07-22T05:40:05;22.20;71.00
37658;DHT22;23500;53.268;8.308;2022-07-22T05:42:31;22.20;70.60
37658;DHT22;23500;53.268;8.308;2022-07-22T05:44:57;22.30;70.50
37658;DHT22;23500;53.268;8.308;2022-07-22T05:47:22;22.20;70.50
37658;DHT22;23500;53.268;8.308;2022-07-22T05:49:48;22.20;70.70
37658;DHT22;23500;53.268;8.308;2022-07-22T05:52:13;22.30;70.90
37658;DHT22;23500;53.268;8.308;2022-07-22T05:54:39;22.30;70.80
37658;DHT22;23500;53.268;8.308;2022-07-22T05:57:08;22.30;70.80
37658;DHT22;23500;53.268;8.308;2022-07-22T05:59:35;22.30;70.50
37658;DHT22;23500;53.268;8.308;2022-07-22T06:02:01;22.30;70.90
37658;DHT22;23500;53.268;8.308;2022-07-22T06:04:27;22.30;70.60
37658;DHT22;23500;53.268;8.308;2022-07-22T06:06:53;22.30;70.40
37658;DHT22;23500;53.268;8.308;2022-07-22T06:09:18;22.30;70.20
37658;DHT22;23500;53.268;8.308;2022-07-22T06:11:44;22.30;70.20
37658;DHT22;23500;53.268;8.308;2022-07-22T06:14:10;22.30;70.20
37658;DHT22;23500;53.268;8.308;2022-07-22T06:16:35;22.30;70.30
37658;DHT22;23500;53.268;8.308;2022-07-22T06:19:02;22.30;70.30
37658;DHT22;23500;53.268;8.308;2022-07-22T06:21:28;22.30;70.20
37658;DHT22;23500;53.268;8.308;2022-07-22T06:23:54;22.40;70.50
37658;DHT22;23500;53.268;8.308;2022-07-22T06:26:19;22.40;70.00
37658;DHT22;23500;53.268;8.308;2022-07-22T06:28:45;22.40;70.30
37658;DHT22;23500;53.268;8.308;2022-07-22T06:31:11;22.40;70.10
37658;DHT22;23500;53.268;8.308;2022-07-22T06:33:37;22.40;69.70
37658;DHT22;23500;53.268;8.308;2022-07-22T06:36:03;22.40;69.40
37658;DHT22;23500;53.268;8.308;2022-07-22T06:38:30;22.40;69.40
37658;DHT22;23500;53.268;8.308;2022-07-22T06:40:56;22.40;69.60
37658;DHT22;23500;53.268;8.308;2022-07-22T06:43:22;22.40;69.30
37658;DHT22;23500;53.268;8.308;2022-07-22T06:45:48;22.40;69.10
37658;DHT22;23500;53.268;8.308;2022-07-22T06:48:13;22.40;69.20
37658;DHT22;23500;53.268;8.308;2022-07-22T06:50:39;22.40;69.50
37658;DHT22;23500;53.268;8.308;2022-07-22T06:53:05;22.40;69.50
37658;DHT22;23500;53.268;8.308;2022-07-22T06:55:31;22.40;69.30
37658;DHT22;23500;53.268;8.308;2022-07-22T06:57:57;22.40;69.60
37658;DHT22;23500;53.268;8.308;2022-07-22T07:00:23;22.50;69.60
37658;DHT22;23500;53.268;8.308;2022-07-22T07:02:49;22.40;69.30
37658;DHT22;23500;53.268;8.308;2022-07-22T07:05:15;22.50;69.60
37658;DHT22;23500;53.268;8.308;2022-07-22T07:07:41;22.50;69.70
37658;DHT22;23500;53.268;8.308;2022-07-22T07:10:07;22.50;69.70
37658;DHT22;23500;53.268;8.308;2022-07-22T07:12:35;22.50;68.80
37658;DHT22;23500;53.268;8.308;2022-07-22T07:15:00;22.50;69.30
37658;DHT22;23500;53.268;8.308;2022-07-22T07:17:26;22.50;69.10
37658;DHT22;23500;53.268;8.308;2022-07-22T07:19:52;22.50;70.20
37658;DHT22;23500;53.268;8.308;2022-07-22T07:22:17;22.50;70.60
37658;DHT22;23500;53.268;8.308;2022-07-22T07:24:43;22.50;70.10
37658;DHT22;23500;53.268;8.308;2022-07-22T07:27:09;22.60;70.70
37658;DHT22;23500;53.268;8.308;2022-07-22T07:29:35;22.60;70.50
37658;DHT22;23500;53.268;8.308;2022-07-22T07:32:00;22.60;70.50
37658;DHT22;23500;53.268;8.308;2022-07-22T07:34:26;22.60;70.70
37658;DHT22;23500;53.268;8.308;2022-07-22T07:36:52;22.60;71.40
37658;DHT22;23500;53.268;8.308;2022-07-22T07:39:18;22.60;71.30
37658;DHT22;23500;53.268;8.308;2022-07-22T07:41:44;22.70;71.10
37658;DHT22;23500;53.268;8.308;2022-07-22T07:44:09;22.70;71.00
37658;DHT22;23500;53.268;8.308;2022-07-22T07:46:35;22.70;70.20
37658;DHT22;23500;53.268;8.308;2022-07-22T07:49:00;22.70;70.10
37658;DHT22;23500;53.268;8.308;2022-07-22T07:51:26;22.60;70.00
37658;DHT22;23500;53.268;8.308;2022-07-22T07:53:52;22.70;70.10
37658;DHT22;23500;53.268;8.308;2022-07-22T07:56:17;22.60;71.20
37658;DHT22;23500;53.268;8.308;2022-07-22T07:58:43;22.70;71.30
37658;DHT22;23500;53.268;8.308;2022-07-22T08:01:09;22.70;70.40
37658;DHT22;23500;53.268;8.308;2022-07-22T08:03:34;22.70;70.00
37658;DHT22;23500;53.268;8.308;2022-07-22T08:06:00;22.70;69.50
37658;DHT22;23500;53.268;8.308;2022-07-22T08:08:27;22.70;70.10
37658;DHT22;23500;53.268;8.308;2022-07-22T08:10:52;22.70;69.60
37658;DHT22;23500;53.268;8.308;2022-07-22T08:13:18;22.70;70.40
37658;DHT22;23500;53.268;8.308;2022-07-22T08:15:44;22.70;69.20
37658;DHT22;23500;53.268;8.308;2022-07-22T08:18:10;22.70;69.00
37658;DHT22;23500;53.268;8.308;2022-07-22T08:20:35;22.70;69.10
37658;DHT22;23500;53.268;8.308;2022-07-22T08:23:01;22.70;69.30
37658;DHT22;23500;53.268;8.308;2022-07-22T08:25:27;22.70;68.90
37658;DHT22;23500;53.268;8.308;2022-07-22T08:27:53;22.70;68.50
37658;DHT22;23500;53.268;8.308;2022-07-22T08:30:19;22.70;68.60
37658;DHT22;23500;53.268;8.308;2022-07-22T08:32:45;22.70;67.90
37658;DHT22;23500;53.268;8.308;2022-07-22T08:35:11;22.70;68.10
37658;DHT22;23500;53.268;8.308;2022-07-22T08:37:37;22.70;68.00
37658;DHT22;23500;53.268;8.308;2022-07-22T08:40:05;22.70;68.20
37658;DHT22;23500;53.268;8.308;2022-07-22T08:42:32;22.70;68.60
37658;DHT22;23500;53.268;8.308;2022-07-22T08:45:01;22.70;68.00
37658;DHT22;23500;53.268;8.308;2022-07-22T08:47:27;22.70;67.90
37658;DHT22;23500;53.268;8.308;2022-07-22T08:49:53;22.70;68.70
37658;DHT22;23500;53.268;8.308;2022-07-22T08:52:19;22.70;68.40
37658;DHT22;23500;53.268;8.308;2022-07-22T08:54:45;22.70;69.40
37658;DHT22;23500;53.268;8.308;2022-07-22T08:57:10;22.70;68.10
37658;DHT22;23500;53.268;8.308;2022-07-22T08:59:53;22.70;68.20
37658;DHT22;23500;53.268;8.308;2022-07-22T09:02:20;22.70;67.70
37658;DHT22;23500;53.268;8.308;2022-07-22T09:04:57;22.70;68.40
37658;DHT22;23500;53.268;8.308;2022-07-22T09:07:40;22.80;68.90
37658;DHT22;23500;53.268;8.308;2022-07-22T09:10:11;22.80;68.10
37658;DHT22;23500;53.268;8.308;2022-07-22T09:12:58;22.80;68.10
37658;DHT22;23500;53.268;8.308;2022-07-22T09:15:46;22.80;68.40
37658;DHT22;23500;53.268;8.308;2022-07-22T09:18:11;22.80;68.60
37658;DHT22;23500;53.268;8.308;2022-07-22T09:20:37;22.80;68.10
37658;DHT22;23500;53.268;8.308;2022-07-22T09:23:29;22.80;68.10
37658;DHT22;23500;53.268;8.308;2022-07-22T09:26:03;22.80;67.40
37658;DHT22;23500;53.268;8.308;2022-07-22T09:28:29;22.80;67.20
37658;DHT22;23500;53.268;8.308;2022-07-22T09:30:55;22.80;67.60
37658;DHT22;23500;53.268;8.308;2022-07-22T09:33:22;22.80;67.30
37658;DHT22;23500;53.268;8.308;2022-07-22T09:35:48;22.80;67.30
37658;DHT22;23500;53.268;8.308;2022-07-22T09:38:16;22.90;68.10
37658;DHT22;23500;53.268;8.308;2022-07-22T09:40:44;22.80;66.80
37658;DHT22;23500;53.268;8.308;2022-07-22T09:43:12;22.90;67.70
37658;DHT22;23500;53.268;8.308;2022-07-22T09:46:04;22.90;68.50
37658;DHT22;23500;53.268;8.308;2022-07-22T09:48:30;22.90;67.00
37658;DHT22;23500;53.268;8.308;2022-07-22T09:50:57;22.90;67.70
37658;DHT22;23500;53.268;8.308;2022-07-22T09:53:24;22.90;66.90
37658;DHT22;23500;53.268;8.308;2022-07-22T09:55:50;22.90;68.40
37658;DHT22;23500;53.268;8.308;2022-07-22T09:58:17;22.80;66.90
37658;DHT22;23500;53.268;8.308;2022-07-22T10:00:43;22.90;67.70
37658;DHT22;23500;53.268;8.308;2022-07-22T10:03:17;22.90;67.50
37658;DHT22;23500;53.268;8.308;2022-07-22T10:05:43;22.90;67.00
37658;DHT22;23500;53.268;8.308;2022-07-22T10:08:09;22.90;67.10
37658;DHT22;23500;53.268;8.308;2022-07-22T10:10:36;22.90;67.70
37658;DHT22;23500;53.268;8.308;2022-07-22T10:13:04;22.90;68.10
37658;DHT22;23500;53.268;8.308;2022-07-22T10:15:32;22.90;68.10
37658;DHT22;23500;53.268;8.308;2022-07-22T10:18:00;23.00;68.10
37658;DHT22;23500;53.268;8.308;2022-07-22T10:20:29;23.00;68.70
37658;DHT22;23500;53.268;8.308;2022-07-22T10:25:27;23.00;67.80
37658;DHT22;23500;53.268;8.308;2022-07-22T10:30:31;23.00;68.70
37658;DHT22;23500;53.268;8.308;2022-07-22T10:33:06;23.10;67.70
37658;DHT22;23500;53.268;8.308;2022-07-22T10:35:38;23.00;67.60
37658;DHT22;23500;53.268;8.308;2022-07-22T10:38:17;23.00;68.20
37658;DHT22;23500;53.268;8.308;2022-07-22T10:40:54;23.00;68.20
37658;DHT22;23500;53.268;8.308;2022-07-22T10:46:09;23.10;69.10
37658;DHT22;23500;53.268;8.308;2022-07-22T10:54:02;22.90;64.20
37658;DHT22;23500;53.268;8.308;2022-07-22T10:56:29;22.90;64.40
37658;DHT22;23500;53.268;8.308;2022-07-22T10:59:10;22.90;64.50
37658;DHT22;23500;53.268;8.308;2022-07-22T11:01:38;22.90;64.40
37658;DHT22;23500;53.268;8.308;2022-07-22T11:04:25;22.90;63.70
37658;DHT22;23500;53.268;8.308;2022-07-22T11:06:56;22.80;63.00
37658;DHT22;23500;53.268;8.308;2022-07-22T11:09:30;22.90;62.70
37658;DHT22;23500;53.268;8.308;2022-07-22T11:11:56;22.90;62.50
37658;DHT22;23500;53.268;8.308;2022-07-22T11:14:23;22.80;62.10
37658;DHT22;23500;53.268;8.308;2022-07-22T11:16:55;22.80;62.00
37658;DHT22;23500;53.268;8.308;2022-07-22T11:19:29;22.80;61.90
37658;DHT22;23500;53.268;8.308;2022-07-22T11:22:00;22.80;62.30
37658;DHT22;23500;53.268;8.308;2022-07-22T11:24:28;22.80;62.30
37658;DHT22;23500;53.268;8.308;2022-07-22T11:26:55;22.80;62.70
37658;DHT22;23500;53.268;8.308;2022-07-22T11:29:29;22.80;63.50
37658;DHT22;23500;53.268;8.308;2022-07-22T11:31:56;22.90;63.70
37658;DHT22;23500;53.268;8.308;2022-07-22T11:34:23;22.90;63.80
37658;DHT22;23500;53.268;8.308;2022-07-22T11:36:49;22.90;64.00
37658;DHT22;23500;53.268;8.308;2022-07-22T11:39:22;22.90;64.20
37658;DHT22;23500;53.268;8.308;2022-07-22T11:41:50;22.90;64.50
37658;DHT22;23500;53.268;8.308;2022-07-22T11:44:20;23.00;64.70
37658;DHT22;23500;53.268;8.308;2022-07-22T11:46:47;23.00;65.00
37658;DHT22;23500;53.268;8.308;2022-07-22T11:49:20;23.00;65.00
37658;DHT22;23500;53.268;8.308;2022-07-22T11:51:47;23.00;65.20
37658;DHT22;23500;53.268;8.308;2022-07-22T11:54:13;23.00;65.40
37658;DHT22;23500;53.268;8.308;2022-07-22T11:56:39;23.00;65.50
37658;DHT22;23500;53.268;8.308;2022-07-22T11:59:06;23.00;59.10
37658;DHT22;23500;53.268;8.308;2022-07-22T12:01:36;22.90;61.70
37658;DHT22;23500;53.268;8.308;2022-07-22T12:04:14;22.90;60.20
37658;DHT22;23500;53.268;8.308;2022-07-22T12:06:42;22.80;60.20
37658;DHT22;23500;53.268;8.308;2022-07-22T12:09:13;22.80;61.00
37658;DHT22;23500;53.268;8.308;2022-07-22T12:11:41;22.70;62.80
37658;DHT22;23500;53.268;8.308;2022-07-22T12:14:08;22.60;64.00
37658;DHT22;23500;53.268;8.308;2022-07-22T12:16:35;22.60;63.90
37658;DHT22;23500;53.268;8.308;2022-07-22T12:19:12;22.60;63.50
37658;DHT22;23500;53.268;8.308;2022-07-22T12:22:24;22.60;63.20
37658;DHT22;23500;53.268;8.308;2022-07-22T12:24:44;22.70;63.10
37658;DHT22;23500;53.268;8.308;2022-07-22T12:27:16;22.70;62.20
37658;DHT22;23500;53.268;8.308;2022-07-22T12:29:44;22.60;62.10
37658;DHT22;23500;53.268;8.308;2022-07-22T12:40:17;22.50;62.70
37658;DHT22;23500;53.268;8.308;2022-07-22T12:42:45;22.50;62.80
37658;DHT22;23500;53.268;8.308;2022-07-22T12:45:16;22.50;63.60
37658;DHT22;23500;53.268;8.308;2022-07-22T12:50:28;22.40;63.70
37658;DHT22;23500;53.268;8.308;2022-07-22T12:53:12;22.30;64.20
37658;DHT22;23500;53.268;8.308;2022-07-22T12:55:43;22.30;63.40
37658;DHT22;23500;53.268;8.308;2022-07-22T12:58:11;22.30;62.20
37658;DHT22;23500;53.268;8.308;2022-07-22T13:00:52;22.20;61.80
37658;DHT22;23500;53.268;8.308;2022-07-22T13:03:19;22.10;62.80
37658;DHT22;23500;53.268;8.308;2022-07-22T13:05:56;22.10;63.60
37658;DHT22;23500;53.268;8.308;2022-07-22T13:08:23;22.00;62.50
37658;DHT22;23500;53.268;8.308;2022-07-22T13:10:50;22.00;64.20
37658;DHT22;23500;53.268;8.308;2022-07-22T13:13:16;22.10;64.40
37658;DHT22;23500;53.268;8.308;2022-07-22T13:15:41;22.20;64.80
37658;DHT22;23500;53.268;8.308;2022-07-22T13:18:07;22.30;64.20
37658;DHT22;23500;53.268;8.308;2022-07-22T13:20:33;22.40;64.20
37658;DHT22;23500;53.268;8.308;2022-07-22T13:22:59;22.40;64.20
37658;DHT22;23500;53.268;8.308;2022-07-22T13:25:25;22.50;64.20
37658;DHT22;23500;53.268;8.308;2022-07-22T13:27:52;22.50;64.00
37658;DHT22;23500;53.268;8.308;2022-07-22T13:30:18;22.60;64.10
37658;DHT22;23500;53.268;8.308;2022-07-22T13:32:44;22.60;64.10
37658;DHT22;23500;53.268;8.308;2022-07-22T13:35:10;22.60;64.00
37658;DHT22;23500;53.268;8.308;2022-07-22T13:37:36;22.70;64.00
37658;DHT22;23500;53.268;8.308;2022-07-22T13:40:02;22.70;64.00
37658;DHT22;23500;53.268;8.308;2022-07-22T13:42:28;22.70;64.00
37658;DHT22;23500;53.268;8.308;2022-07-22T13:44:54;22.70;64.00
37658;DHT22;23500;53.268;8.308;2022-07-22T13:47:20;22.70;64.00
37658;DHT22;23500;53.268;8.308;2022-07-22T13:49:46;22.80;64.10
37658;DHT22;23500;53.268;8.308;2022-07-22T13:52:13;22.80;64.10
37658;DHT22;23500;53.268;8.308;2022-07-22T13:54:39;22.80;64.10
37658;DHT22;23500;53.268;8.308;2022-07-22T13:57:05;22.80;64.80
37658;DHT22;23500;53.268;8.308;2022-07-22T13:59:31;22.80;64.40
37658;DHT22;23500;53.268;8.308;2022-07-22T14:01:57;22.80;64.20
37658;DHT22;23500;53.268;8.308;2022-07-22T14:04:23;22.80;64.30
37658;DHT22;23500;53.268;8.308;2022-07-22T14:06:49;22.80;64.40
37658;DHT22;23500;53.268;8.308;2022-07-22T14:09:15;22.80;64.30
37658;DHT22;23500;53.268;8.308;2022-07-22T14:11:40;22.80;64.30
37658;DHT22;23500;53.268;8.308;2022-07-22T14:14:06;22.80;64.10
37658;DHT22;23500;53.268;8.308;2022-07-22T14:16:33;22.80;64.20
37658;DHT22;23500;53.268;8.308;2022-07-22T14:19:06;22.80;64.00
37658;DHT22;23500;53.268;8.308;2022-07-22T14:21:33;22.80;64.60
37658;DHT22;23500;53.268;8.308;2022-07-22T14:23:59;22.80;64.50
37658;DHT22;23500;53.268;8.308;2022-07-22T14:26:25;22.80;64.50
37658;DHT22;23500;53.268;8.308;2022-07-22T14:28:51;22.80;64.50
37658;DHT22;23500;53.268;8.308;2022-07-22T14:31:17;22.80;64.50
37658;DHT22;23500;53.268;8.308;2022-07-22T14:33:43;22.80;64.40
37658;DHT22;23500;53.268;8.308;2022-07-22T14:36:09;22.80;64.80
37658;DHT22;23500;53.268;8.308;2022-07-22T14:38:34;22.80;65.40
37658;DHT22;23500;53.268;8.308;2022-07-22T14:41:00;22.80;64.80
37658;DHT22;23500;53.268;8.308;2022-07-22T14:43:26;22.80;64.80
37658;DHT22;23500;53.268;8.308;2022-07-22T14:45:52;22.80;64.60
37658;DHT22;23500;53.268;8.308;2022-07-22T14:48:18;22.80;64.20
37658;DHT22;23500;53.268;8.308;2022-07-22T14:50:44;22.80;64.20
37658;DHT22;23500;53.268;8.308;2022-07-22T14:53:10;22.80;64.10
37658;DHT22;23500;53.268;8.308;2022-07-22T14:55:35;22.80;64.10
37658;DHT22;23500;53.268;8.308;2022-07-22T14:58:01;22.80;64.20
37658;DHT22;23500;53.268;8.308;2022-07-22T15:00:27;22.80;64.00
37658;DHT22;23500;53.268;8.308;2022-07-22T15:02:52;22.70;63.80
37658;DHT22;23500;53.268;8.308;2022-07-22T15:05:18;22.80;64.00
37658;DHT22;23500;53.268;8.308;2022-07-22T15:07:43;22.70;63.90
37658;DHT22;23500;53.268;8.308;2022-07-22T15:10:09;22.80;64.30
37658;DHT22;23500;53.268;8.308;2022-07-22T15:12:36;22.80;64.50
37658;DHT22;23500;53.268;8.308;2022-07-22T15:15:02;22.70;63.90
37658;DHT22;23500;53.268;8.308;2022-07-22T15:17:33;22.80;64.10
37658;DHT22;23500;53.268;8.308;2022-07-22T15:19:59;22.80;64.30
37658;DHT22;23500;53.268;8.308;2022-07-22T15:22:24;22.80;65.20
37658;DHT22;23500;53.268;8.308;2022-07-22T15:24:50;22.80;64.60
37658;DHT22;23500;53.268;8.308;2022-07-22T15:27:16;22.80;64.40
37658;DHT22;23500;53.268;8.308;2022-07-22T15:29:43;22.80;64.40
37658;DHT22;23500;53.268;8.308;2022-07-22T15:32:09;22.80;64.70
37658;DHT22;23500;53.268;8.308;2022-07-22T15:34:35;22.80;64.70
37658;DHT22;23500;53.268;8.308;2022-07-22T15:37:01;22.80;64.60
37658;DHT22;23500;53.268;8.308;2022-07-22T15:39:26;22.80;64.60
37658;DHT22;23500;53.268;8.308;2022-07-22T15:41:52;22.80;64.40
37658;DHT22;23500;53.268;8.308;2022-07-22T15:44:18;22.80;64.40
37658;DHT22;23500;53.268;8.308;2022-07-22T15:46:43;22.90;64.70
37658;DHT22;23500;53.268;8.308;2022-07-22T15:49:09;22.90;64.70
37658;DHT22;23500;53.268;8.308;2022-07-22T15:51:37;22.90;64.40
37658;DHT22;23500;53.268;8.308;2022-07-22T15:54:02;22.80;63.90